sensor_id;sensor_type;location;lat;lon;timestamp;temperature;humidity
45693;DHT22;31402;44.752;-0.374;2022-09-29T00:01:28;17.80;98.60
45693;DHT22;31402;44.752;-0.374;2022-09-29T00:03:55;17.70;98.60
45693;DHT22;31402;44.752;-0.374;2022-09-29T00:06:20;17.70;98.60
45693;DHT22;31402;44.752;-0.374;2022-09-29T00:08:47;17.80;98.50
45693;DHT22;31402;44.752;-0.374;2022-09-29T00:11:15;17.70;98.40
45693;DHT22;31402;44.752;-0.374;2022-09-29T00:13:42;17.70;98.50
45693;DHT22;31402;44.752;-0.374;2022-09-29T00:16:09;17.70;98.50
45693;DHT22;31402;44.752;-0.374;2022-09-29T00:18:35;17.70;98.40
45693;DHT22;31402;44.752;-0.374;2022-09-29T00:21:08;17.70;98.50
45693;DHT22;31402;44.752;-0.374;2022-09-29T00:23:34;17.70;98.50
45693;DHT22;31402;44.752;-0.374;2022-09-29T00:26:06;17.70;98.40
45693;DHT22;31402;44.752;-0.374;2022-09-29T00:28:33;17.80;98.40
45693;DHT22;31402;44.752;-0.374;2022-09-29T00:31:00;17.80;98.30
45693;DHT22;31402;44.752;-0.374;2022-09-29T00:33:30;17.70;98.30
45693;DHT22;31402;44.752;-0.374;2022-09-29T00:36:10;17.80;98.20
45693;DHT22;31402;44.752;-0.374;2022-09-29T00:38:37;17.70;98.10
45693;DHT22;31402;44.752;-0.374;2022-09-29T00:41:03;17.60;98.30
45693;DHT22;31402;44.752;-0.374;2022-09-29T00:52:02;17.60;98.20
45693;DHT22;31402;44.752;-0.374;2022-09-29T00:54:34;17.60;98.20
45693;DHT22;31402;44.752;-0.374;2022-09-29T00:57:02;17.60;98.20
45693;DHT22;31402;44.752;-0.374;2022-09-29T01:02:07;17.70;98.10
45693;DHT22;31402;44.752;-0.374;2022-09-29T01:04:33;17.70;98.10
45693;DHT22;31402;44.752;-0.374;2022-09-29T01:07:00;17.70;98.00
45693;DHT22;31402;44.752;-0.374;2022-09-29T01:09:30;17.60;98.10
45693;DHT22;31402;44.752;-0.374;2022-09-29T01:11:57;17.60;98.20
45693;DHT22;31402;44.752;-0.374;2022-09-29T01:14:25;17.50;98.20
45693;DHT22;31402;44.752;-0.374;2022-09-29T01:16:51;17.50;98.20
45693;DHT22;31402;44.752;-0.374;2022-09-29T01:19:29;17.50;98.30
45693;DHT22;31402;44.752;-0.374;2022-09-29T01:22:25;17.50;98.30
45693;DHT22;31402;44.752;-0.374;2022-09-29T01:24:54;17.50;98.30
45693;DHT22;31402;44.752;-0.374;2022-09-29T01:33:16;17.50;98.40
45693;DHT22;31402;44.752;-0.374;2022-09-29T01:36:16;17.50;98.50
45693;DHT22;31402;44.752;-0.374;2022-09-29T01:41:40;17.30;98.80
45693;DHT22;31402;44.752;-0.374;2022-09-29T01:44:20;17.30;98.70
45693;DHT22;31402;44.752;-0.374;2022-09-29T01:46:51;17.20;98.80
45693;DHT22;31402;44.752;-0.374;2022-09-29T01:49:20;17.20;98.90
45693;DHT22;31402;44.752;-0.374;2022-09-29T01:51:51;17.20;98.80
45693;DHT22;31402;44.752;-0.374;2022-09-29T01:54:26;17.20;98.80
45693;DHT22;31402;44.752;-0.374;2022-09-29T01:57:01;17.20;98.80
45693;DHT22;31402;44.752;-0.374;2022-09-29T01:59:55;17.20;99.30
45693;DHT22;31402;44.752;-0.374;2022-09-29T02:02:52;17.20;98.90
45693;DHT22;31402;44.752;-0.374;2022-09-29T02:08:05;17.20;98.90
45693;DHT22;31402;44.752;-0.374;2022-09-29T02:10:36;17.20;98.90
45693;DHT22;31402;44.752;-0.374;2022-09-29T02:13:08;17.20;98.80
45693;DHT22;31402;44.752;-0.374;2022-09-29T02:15:38;17.20;98.80
45693;DHT22;31402;44.752;-0.374;2022-09-29T02:18:44;17.10;98.80
45693;DHT22;31402;44.752;-0.374;2022-09-29T02:21:02;17.00;99.10
45693;DHT22;31402;44.752;-0.374;2022-09-29T02:23:28;17.00;99.10
45693;DHT22;31402;44.752;-0.374;2022-09-29T02:25:56;17.10;99.10
45693;DHT22;31402;44.752;-0.374;2022-09-29T02:28:23;17.00;99.20
45693;DHT22;31402;44.752;-0.374;2022-09-29T02:30:49;17.10;99.20
45693;DHT22;31402;44.752;-0.374;2022-09-29T02:33:20;17.10;99.20
45693;DHT22;31402;44.752;-0.374;2022-09-29T02:36:27;17.20;99.10
45693;DHT22;31402;44.752;-0.374;2022-09-29T02:49:39;17.00;99.30
45693;DHT22;31402;44.752;-0.374;2022-09-29T02:55:16;17.10;99.20
45693;DHT22;31402;44.752;-0.374;2022-09-29T02:57:49;17.00;99.20
45693;DHT22;31402;44.752;-0.374;2022-09-29T03:00:17;17.10;99.20
45693;DHT22;31402;44.752;-0.374;2022-09-29T03:02:43;17.10;99.10
45693;DHT22;31402;44.752;-0.374;2022-09-29T03:05:15;17.10;99.10
45693;DHT22;31402;44.752;-0.374;2022-09-29T03:07:41;17.10;99.10
45693;DHT22;31402;44.752;-0.374;2022-09-29T03:10:08;17.00;99.10
45693;DHT22;31402;44.752;-0.374;2022-09-29T03:12:35;17.00;99.20
45693;DHT22;31402;44.752;-0.374;2022-09-29T03:15:01;16.90;99.20
45693;DHT22;31402;44.752;-0.374;2022-09-29T03:17:27;16.90;99.30
45693;DHT22;31402;44.752;-0.374;2022-09-29T03:19:53;16.90;99.20
45693;DHT22;31402;44.752;-0.374;2022-09-29T03:22:19;17.00;99.20
45693;DHT22;31402;44.752;-0.374;2022-09-29T03:24:44;17.00;99.20
45693;DHT22;31402;44.752;-0.374;2022-09-29T03:27:10;17.00;99.10
45693;DHT22;31402;44.752;-0.374;2022-09-29T03:29:36;16.90;99.20
45693;DHT22;31402;44.752;-0.374;2022-09-29T03:32:03;16.90;99.20
45693;DHT22;31402;44.752;-0.374;2022-09-29T03:34:29;16.90;99.20
45693;DHT22;31402;44.752;-0.374;2022-09-29T03:36:54;17.00;99.10
45693;DHT22;31402;44.752;-0.374;2022-09-29T03:39:21;16.90;99.00
45693;DHT22;31402;44.752;-0.374;2022-09-29T03:41:47;16.90;99.10
45693;DHT22;31402;44.752;-0.374;2022-09-29T03:44:12;16.80;99.10
45693;DHT22;31402;44.752;-0.374;2022-09-29T03:46:39;16.90;99.10
45693;DHT22;31402;44.752;-0.374;2022-09-29T03:49:05;16.80;99.10
45693;DHT22;31402;44.752;-0.374;2022-09-29T03:51:30;16.80;99.20
45693;DHT22;31402;44.752;-0.374;2022-09-29T03:53:56;16.80;99.10
45693;DHT22;31402;44.752;-0.374;2022-09-29T03:56:22;16.80;99.10
45693;DHT22;31402;44.752;-0.374;2022-09-29T03:58:48;16.90;99.20
45693;DHT22;31402;44.752;-0.374;2022-09-29T04:01:14;16.90;99.10
45693;DHT22;31402;44.752;-0.374;2022-09-29T04:03:39;16.80;99.20
45693;DHT22;31402;44.752;-0.374;2022-09-29T04:06:05;16.80;99.20
45693;DHT22;31402;44.752;-0.374;2022-09-29T04:08:31;16.70;99.40
45693;DHT22;31402;44.752;-0.374;2022-09-29T04:10:59;16.60;99.50
45693;DHT22;31402;44.752;-0.374;2022-09-29T04:13:25;16.70;99.40
45693;DHT22;31402;44.752;-0.374;2022-09-29T04:15:51;16.70;99.40
45693;DHT22;31402;44.752;-0.374;2022-09-29T04:18:16;16.70;99.80
45693;DHT22;31402;44.752;-0.374;2022-09-29T04:20:42;16.60;99.70
45693;DHT22;31402;44.752;-0.374;2022-09-29T04:23:08;16.70;99.70
45693;DHT22;31402;44.752;-0.374;2022-09-29T04:25:34;16.70;99.60
45693;DHT22;31402;44.752;-0.374;2022-09-29T04:28:00;16.70;99.70
45693;DHT22;31402;44.752;-0.374;2022-09-29T04:30:25;16.70;99.70
45693;DHT22;31402;44.752;-0.374;2022-09-29T04:32:51;16.70;99.80
45693;DHT22;31402;44.752;-0.374;2022-09-29T04:35:17;16.60;99.90
45693;DHT22;31402;44.752;-0.374;2022-09-29T04:37:43;16.50;99.90
45693;DHT22;31402;44.752;-0.374;2022-09-29T04:40:08;16.50;99.90
45693;DHT22;31402;44.752;-0.374;2022-09-29T04:42:34;16.50;99.90
45693;DHT22;31402;44.752;-0.374;2022-09-29T04:45:00;16.50;99.90
45693;DHT22;31402;44.752;-0.374;2022-09-29T04:47:26;16.40;99.90
45693;DHT22;31402;44.752;-0.374;2022-09-29T04:49:52;16.40;99.90
45693;DHT22;31402;44.752;-0.374;2022-09-29T04:52:17;16.50;99.90
45693;DHT22;31402;44.752;-0.374;2022-09-29T04:54:43;16.60;99.90
45693;DHT22;31402;44.752;-0.374;2022-09-29T04:57:09;16.50;99.90
45693;DHT22;31402;44.752;-0.374;2022-09-29T04:59:35;16.60;99.90
45693;DHT22;31402;44.752;-0.374;2022-09-29T05:02:01;16.60;99.90
45693;DHT22;31402;44.752;-0.374;2022-09-29T05:04:26;16.50;99.90
45693;DHT22;31402;44.752;-0.374;2022-09-29T05:06:52;16.50;99.90
45693;DHT22;31402;44.752;-0.374;2022-09-29T05:09:18;16.40;99.90
45693;DHT22;31402;44.752;-0.374;2022-09-29T05:11:44;16.40;99.90
45693;DHT22;31402;44.752;-0.374;2022-09-29T05:14:10;16.30;99.90
45693;DHT22;31402;44.752;-0.374;2022-09-29T05:16:36;16.30;99.90
45693;DHT22;31402;44.752;-0.374;2022-09-29T05:19:02;16.30;99.90
45693;DHT22;31402;44.752;-0.374;2022-09-29T05:21:27;16.40;99.90
45693;DHT22;31402;44.752;-0.374;2022-09-29T05:23:53;16.40;99.90
45693;DHT22;31402;44.752;-0.374;2022-09-29T05:26:19;16.30;99.90
45693;DHT22;31402;44.752;-0.374;2022-09-29T05:28:46;16.30;99.90
45693;DHT22;31402;44.752;-0.374;2022-09-29T05:31:12;16.30;99.90
45693;DHT22;31402;44.752;-0.374;2022-09-29T05:33:39;16.30;99.90
45693;DHT22;31402;44.752;-0.374;2022-09-29T05:36:10;16.30;99.90
45693;DHT22;31402;44.752;-0.374;2022-09-29T05:38:37;16.30;99.90
45693;DHT22;31402;44.752;-0.374;2022-09-29T05:41:08;16.40;99.90
45693;DHT22;31402;44.752;-0.374;2022-09-29T05:43:34;16.50;99.90
45693;DHT22;31402;44.752;-0.374;2022-09-29T05:46:01;16.40;99.90
45693;DHT22;31402;44.752;-0.374;2022-09-29T05:48:28;16.40;99.90
45693;DHT22;31402;44.752;-0.374;2022-09-29T05:50:58;16.40;99.90
45693;DHT22;31402;44.752;-0.374;2022-09-29T05:53:24;16.40;99.90
45693;DHT22;31402;44.752;-0.374;2022-09-29T05:55:51;16.50;99.90
45693;DHT22;31402;44.752;-0.374;2022-09-29T05:58:17;16.40;99.90
45693;DHT22;31402;44.752;-0.374;2022-09-29T06:00:43;16.40;99.90
45693;DHT22;31402;44.752;-0.374;2022-09-29T06:03:08;16.50;99.90
45693;DHT22;31402;44.752;-0.374;2022-09-29T06:05:38;16.40;99.90
45693;DHT22;31402;44.752;-0.374;2022-09-29T06:08:04;16.30;99.90
45693;DHT22;31402;44.752;-0.374;2022-09-29T06:10:31;16.30;99.90
45693;DHT22;31402;44.752;-0.374;2022-09-29T06:12:56;16.30;99.90
45693;DHT22;31402;44.752;-0.374;2022-09-29T06:15:23;16.30;99.90
45693;DHT22;31402;44.752;-0.374;2022-09-29T06:17:59;16.30;99.90
45693;DHT22;31402;44.752;-0.374;2022-09-29T06:20:25;16.40;99.90
45693;DHT22;31402;44.752;-0.374;2022-09-29T06:22:54;16.30;99.90
45693;DHT22;31402;44.752;-0.374;2022-09-29T06:25:21;16.40;99.90
45693;DHT22;31402;44.752;-0.374;2022-09-29T06:27:47;16.50;99.90
45693;DHT22;31402;44.752;-0.374;2022-09-29T06:30:13;16.60;99.90
45693;DHT22;31402;44.752;-0.374;2022-09-29T06:32:39;16.60;99.90
45693;DHT22;31402;44.752;-0.374;2022-09-29T06:35:05;16.70;99.90
45693;DHT22;31402;44.752;-0.374;2022-09-29T06:37:52;16.60;99.90
45693;DHT22;31402;44.752;-0.374;2022-09-29T06:40:20;16.60;99.90
45693;DHT22;31402;44.752;-0.374;2022-09-29T06:42:47;16.50;99.90
45693;DHT22;31402;44.752;-0.374;2022-09-29T06:45:14;16.50;99.90
45693;DHT22;31402;44.752;-0.374;2022-09-29T06:47:40;16.50;99.90
45693;DHT22;31402;44.752;-0.374;2022-09-29T06:50:06;16.50;99.90
45693;DHT22;31402;44.752;-0.374;2022-09-29T06:52:32;16.50;99.90
45693;DHT22;31402;44.752;-0.374;2022-09-29T06:54:57;16.60;99.90
45693;DHT22;31402;44.752;-0.374;2022-09-29T06:57:23;16.50;99.90
45693;DHT22;31402;44.752;-0.374;2022-09-29T06:59:49;16.50;99.90
45693;DHT22;31402;44.752;-0.374;2022-09-29T07:02:15;16.40;99.90
45693;DHT22;31402;44.752;-0.374;2022-09-29T07:04:41;16.50;99.90
45693;DHT22;31402;44.752;-0.374;2022-09-29T07:07:07;16.50;99.90
45693;DHT22;31402;44.752;-0.374;2022-09-29T07:09:32;16.70;99.90
45693;DHT22;31402;44.752;-0.374;2022-09-29T07:11:59;16.70;99.90
45693;DHT22;31402;44.752;-0.374;2022-09-29T07:14:25;16.70;99.90
45693;DHT22;31402;44.752;-0.374;2022-09-29T07:16:52;16.70;99.90
45693;DHT22;31402;44.752;-0.374;2022-09-29T07:19:18;16.80;99.90
45693;DHT22;31402;44.752;-0.374;2022-09-29T07:21:45;16.80;99.90
45693;DHT22;31402;44.752;-0.374;2022-09-29T07:24:11;16.80;99.90
45693;DHT22;31402;44.752;-0.374;2022-09-29T07:26:37;16.70;99.90
45693;DHT22;31402;44.752;-0.374;2022-09-29T07:29:03;16.80;99.90
45693;DHT22;31402;44.752;-0.374;2022-09-29T07:31:29;16.80;99.90
45693;DHT22;31402;44.752;-0.374;2022-09-29T07:33:55;16.80;99.90
45693;DHT22;31402;44.752;-0.374;2022-09-29T07:36:21;16.90;99.90
45693;DHT22;31402;44.752;-0.374;2022-09-29T07:38:48;16.80;99.90
45693;DHT22;31402;44.752;-0.374;2022-09-29T07:41:16;16.80;99.90
45693;DHT22;31402;44.752;-0.374;2022-09-29T07:43:42;16.80;99.90
45693;DHT22;31402;44.752;-0.374;2022-09-29T07:46:08;16.90;99.90
45693;DHT22;31402;44.752;-0.374;2022-09-29T07:48:35;16.90;99.90
45693;DHT22;31402;44.752;-0.374;2022-09-29T07:53:27;17.00;99.90
45693;DHT22;31402;44.752;-0.374;2022-09-29T07:55:53;17.00;99.90
45693;DHT22;31402;44.752;-0.374;2022-09-29T07:58:19;17.00;99.90
45693;DHT22;31402;44.752;-0.374;2022-09-29T08:00:44;17.10;99.90
45693;DHT22;31402;44.752;-0.374;2022-09-29T08:03:10;17.10;99.90
45693;DHT22;31402;44.752;-0.374;2022-09-29T08:05:36;17.20;99.90
45693;DHT22;31402;44.752;-0.374;2022-09-29T08:08:04;17.20;99.90
45693;DHT22;31402;44.752;-0.374;2022-09-29T08:10:31;17.10;99.90
45693;DHT22;31402;44.752;-0.374;2022-09-29T08:12:57;17.00;99.90
45693;DHT22;31402;44.752;-0.374;2022-09-29T08:15:23;17.00;99.90
45693;DHT22;31402;44.752;-0.374;2022-09-29T08:17:53;17.00;99.90
45693;DHT22;31402;44.752;-0.374;2022-09-29T08:20:20;17.10;99.90
45693;DHT22;31402;44.752;-0.374;2022-09-29T08:22:46;17.10;99.90
45693;DHT22;31402;44.752;-0.374;2022-09-29T08:25:16;17.20;99.90
45693;DHT22;31402;44.752;-0.374;2022-09-29T08:27:42;17.40;99.90
45693;DHT22;31402;44.752;-0.374;2022-09-29T08:30:09;17.50;99.90
45693;DHT22;31402;44.752;-0.374;2022-09-29T08:32:35;17.60;99.90
45693;DHT22;31402;44.752;-0.374;2022-09-29T08:35:01;17.70;99.90
45693;DHT22;31402;44.752;-0.374;2022-09-29T08:37:27;17.80;99.90
45693;DHT22;31402;44.752;-0.374;2022-09-29T08:39:52;17.90;99.90
45693;DHT22;31402;44.752;-0.374;2022-09-29T08:45:06;18.40;99.80
45693;DHT22;31402;44.752;-0.374;2022-09-29T08:47:36;18.70;99.40
45693;DHT22;31402;44.752;-0.374;2022-09-29T08:50:16;18.90;98.90
45693;DHT22;31402;44.752;-0.374;2022-09-29T08:52:50;19.20;98.50
45693;DHT22;31402;44.752;-0.374;2022-09-29T08:57:44;19.50;97.50
45693;DHT22;31402;44.752;-0.374;2022-09-29T09:00:15;19.50;97.40
45693;DHT22;31402;44.752;-0.374;2022-09-29T09:09:24;20.00;96.90
45693;DHT22;31402;44.752;-0.374;2022-09-29T09:11:38;20.10;96.80
45693;DHT22;31402;44.752;-0.374;2022-09-29T09:22:57;20.10;96.80
45693;DHT22;31402;44.752;-0.374;2022-09-29T09:28:12;20.10;96.80
45693;DHT22;31402;44.752;-0.374;2022-09-29T09:30:57;20.20;96.70
45693;DHT22;31402;44.752;-0.374;2022-09-29T09:33:43;20.30;96.40
45693;DHT22;31402;44.752;-0.374;2022-09-29T09:36:33;20.50;95.90
45693;DHT22;31402;44.752;-0.374;2022-09-29T09:41:35;20.70;95.70
45693;DHT22;31402;44.752;-0.374;2022-09-29T09:44:54;20.80;95.40
45693;DHT22;31402;44.752;-0.374;2022-09-29T09:47:28;21.00;95.10
45693;DHT22;31402;44.752;-0.374;2022-09-29T09:50:15;21.00;94.50
45693;DHT22;31402;44.752;-0.374;2022-09-29T09:52:48;20.90;94.40
45693;DHT22;31402;44.752;-0.374;2022-09-29T09:55:21;20.80;94.30
45693;DHT22;31402;44.752;-0.374;2022-09-29T10:00:25;21.10;94.00
45693;DHT22;31402;44.752;-0.374;2022-09-29T10:02:55;21.10;94.10
45693;DHT22;31402;44.752;-0.374;2022-09-29T10:05:25;21.20;93.40
45693;DHT22;31402;44.752;-0.374;2022-09-29T10:07:54;21.10;93.40
45693;DHT22;31402;44.752;-0.374;2022-09-29T10:10:25;21.30;93.90
45693;DHT22;31402;44.752;-0.374;2022-09-29T10:13:04;21.40;93.40
45693;DHT22;31402;44.752;-0.374;2022-09-29T10:15:49;21.50;93.30
45693;DHT22;31402;44.752;-0.374;2022-09-29T10:18:22;21.50;92.90
45693;DHT22;31402;44.752;-0.374;2022-09-29T10:20:50;21.40;92.90
45693;DHT22;31402;44.752;-0.374;2022-09-29T10:23:26;21.40;92.50
45693;DHT22;31402;44.752;-0.374;2022-09-29T10:26:10;21.30;93.00
45693;DHT22;31402;44.752;-0.374;2022-09-29T10:29:00;21.30;92.90
45693;DHT22;31402;44.752;-0.374;2022-09-29T10:31:30;21.30;92.50
45693;DHT22;31402;44.752;-0.374;2022-09-29T10:34:01;21.20;92.70
45693;DHT22;31402;44.752;-0.374;2022-09-29T10:36:33;21.20;92.50
45693;DHT22;31402;44.752;-0.374;2022-09-29T10:39:30;21.20;92.50
45693;DHT22;31402;44.752;-0.374;2022-09-29T10:41:56;21.20;92.20
45693;DHT22;31402;44.752;-0.374;2022-09-29T10:44:22;21.10;92.50
45693;DHT22;31402;44.752;-0.374;2022-09-29T10:46:54;21.10;91.70
45693;DHT22;31402;44.752;-0.374;2022-09-29T10:49:25;21.10;92.10
45693;DHT22;31402;44.752;-0.374;2022-09-29T10:52:04;21.10;92.10
45693;DHT22;31402;44.752;-0.374;2022-09-29T10:54:36;21.10;92.00
45693;DHT22;31402;44.752;-0.374;2022-09-29T10:57:12;21.00;92.20
45693;DHT22;31402;44.752;-0.374;2022-09-29T10:59:46;20.90;92.30
45693;DHT22;31402;44.752;-0.374;2022-09-29T11:04:47;21.00;92.00
45693;DHT22;31402;44.752;-0.374;2022-09-29T11:07:13;20.90;92.30
45693;DHT22;31402;44.752;-0.374;2022-09-29T11:09:40;21.00;92.30
45693;DHT22;31402;44.752;-0.374;2022-09-29T11:12:34;21.00;92.10
45693;DHT22;31402;44.752;-0.374;2022-09-29T11:15:27;21.00;92.60
45693;DHT22;31402;44.752;-0.374;2022-09-29T11:17:54;21.10;93.10
45693;DHT22;31402;44.752;-0.374;2022-09-29T11:20:24;20.90;93.30
45693;DHT22;31402;44.752;-0.374;2022-09-29T11:22:58;21.00;93.30
45693;DHT22;31402;44.752;-0.374;2022-09-29T11:39:25;20.50;94.60
45693;DHT22;31402;44.752;-0.374;2022-09-29T11:44:39;20.20;94.90
45693;DHT22;31402;44.752;-0.374;2022-09-29T11:49:56;20.20;95.20
45693;DHT22;31402;44.752;-0.374;2022-09-29T12:08:45;20.00;95.00
45693;DHT22;31402;44.752;-0.374;2022-09-29T12:11:31;20.00;95.00
45693;DHT22;31402;44.752;-0.374;2022-09-29T12:17:06;20.00;95.20
45693;DHT22;31402;44.752;-0.374;2022-09-29T12:19:38;19.90;95.00
45693;DHT22;31402;44.752;-0.374;2022-09-29T12:22:08;19.90;94.70
45693;DHT22;31402;44.752;-0.374;2022-09-29T12:24:50;19.90;95.00
45693;DHT22;31402;44.752;-0.374;2022-09-29T12:27:27;19.90;95.00
45693;DHT22;31402;44.752;-0.374;2022-09-29T12:30:14;19.50;95.60
45693;DHT22;31402;44.752;-0.374;2022-09-29T12:32:48;19.50;95.80
45693;DHT22;31402;44.752;-0.374;2022-09-29T12:35:17;19.30;96.40
45693;DHT22;31402;44.752;-0.374;2022-09-29T12:40:38;19.40;96.40
45693;DHT22;31402;44.752;-0.374;2022-09-29T12:43:18;19.40;96.10
45693;DHT22;31402;44.752;-0.374;2022-09-29T12:48:57;19.30;96.60
45693;DHT22;31402;44.752;-0.374;2022-09-29T12:51:38;19.40;96.30
45693;DHT22;31402;44.752;-0.374;2022-09-29T12:57:08;19.50;96.40
45693;DHT22;31402;44.752;-0.374;2022-09-29T13:03:14;19.60;96.00
45693;DHT22;31402;44.752;-0.374;2022-09-29T13:08:27;19.60;95.70
45693;DHT22;31402;44.752;-0.374;2022-09-29T13:25:22;19.30;94.70
45693;DHT22;31402;44.752;-0.374;2022-09-29T13:27:50;19.20;94.90
45693;DHT22;31402;44.752;-0.374;2022-09-29T13:30:26;19.10;95.00
45693;DHT22;31402;44.752;-0.374;2022-09-29T13:33:15;19.10;94.80
45693;DHT22;31402;44.752;-0.374;2022-09-29T13:35:47;19.10;94.90
45693;DHT22;31402;44.752;-0.374;2022-09-29T13:38:31;19.30;95.10
45693;DHT22;31402;44.752;-0.374;2022-09-29T13:41:17;19.40;95.20
45693;DHT22;31402;44.752;-0.374;2022-09-29T13:51:47;19.40;95.80
45693;DHT22;31402;44.752;-0.374;2022-09-29T13:59:39;19.30;96.00
45693;DHT22;31402;44.752;-0.374;2022-09-29T14:05:02;19.00;96.30
45693;DHT22;31402;44.752;-0.374;2022-09-29T14:10:43;19.00;96.40
45693;DHT22;31402;44.752;-0.374;2022-09-29T14:13:31;18.90;96.50
45693;DHT22;31402;44.752;-0.374;2022-09-29T14:18:53;18.60;96.70
45693;DHT22;31402;44.752;-0.374;2022-09-29T14:21:55;18.60;97.00
45693;DHT22;31402;44.752;-0.374;2022-09-29T14:30:10;18.50;97.00
45693;DHT22;31402;44.752;-0.374;2022-09-29T14:35:40;18.60;97.20
45693;DHT22;31402;44.752;-0.374;2022-09-29T14:40:35;18.70;97.10
45693;DHT22;31402;44.752;-0.374;2022-09-29T14:43:03;18.70;97.30
45693;DHT22;31402;44.752;-0.374;2022-09-29T14:45:35;18.80;97.10
45693;DHT22;31402;44.752;-0.374;2022-09-29T14:48:33;18.80;97.10
45693;DHT22;31402;44.752;-0.374;2022-09-29T14:51:44;18.80;97.00
45693;DHT22;31402;44.752;-0.374;2022-09-29T15:00:17;18.90;97.20
45693;DHT22;31402;44.752;-0.374;2022-09-29T15:02:50;18.80;97.40
45693;DHT22;31402;44.752;-0.374;2022-09-29T15:05:24;18.80;97.20
45693;DHT22;31402;44.752;-0.374;2022-09-29T15:07:51;18.80;97.50
45693;DHT22;31402;44.752;-0.374;2022-09-29T15:10:40;18.70;97.50
45693;DHT22;31402;44.752;-0.374;2022-09-29T15:13:28;18.90;97.40
45693;DHT22;31402;44.752;-0.374;2022-09-29T15:16:20;18.80;97.30
45693;DHT22;31402;44.752;-0.374;2022-09-29T15:22:16;18.90;97.30
45693;DHT22;31402;44.752;-0.374;2022-09-29T15:27:32;18.80;97.50
45693;DHT22;31402;44.752;-0.374;2022-09-29T15:29:59;18.80;97.20
45693;DHT22;31402;44.752;-0.374;2022-09-29T15:32:30;18.90;97.20
45693;DHT22;31402;44.752;-0.374;2022-09-29T15:35:04;18.90;97.30
45693;DHT22;31402;44.752;-0.374;2022-09-29T15:40:36;18.90;97.40
45693;DHT22;31402;44.752;-0.374;2022-09-29T15:43:02;18.90;97.30
45693;DHT22;31402;44.752;-0.374;2022-09-29T15:45:28;18.80;97.50
45693;DHT22;31402;44.752;-0.374;2022-09-29T15:48:12;18.80;97.70
45693;DHT22;31402;44.752;-0.374;2022-09-29T15:50:42;18.80;97.70
45693;DHT22;31402;44.752;-0.374;2022-09-29T15:53:09;18.80;97.60
45693;DHT22;31402;44.752;-0.374;2022-09-29T15:55:35;18.90;97.60
45693;DHT22;31402;44.752;-0.374;2022-09-29T16:00:50;18.90;97.70
45693;DHT22;31402;44.752;-0.374;2022-09-29T16:03:26;18.90;97.70
45693;DHT22;31402;44.752;-0.374;2022-09-29T16:06:20;18.90;97.70
45693;DHT22;31402;44.752;-0.374;2022-09-29T16:08:50;19.00;97.60
45693;DHT22;31402;44.752;-0.374;2022-09-29T16:11:22;19.00;97.50
45693;DHT22;31402;44.752;-0.374;2022-09-29T16:14:06;19.10;97.20
45693;DHT22;31402;44.752;-0.374;2022-09-29T16:16:41;19.10;97.10
45693;DHT22;31402;44.752;-0.374;2022-09-29T16:21:43;19.10;96.90
45693;DHT22;31402;44.752;-0.374;2022-09-29T16:24:15;19.00;96.60
45693;DHT22;31402;44.752;-0.374;2022-09-29T16:26:49;19.00;96.60
45693;DHT22;31402;44.752;-0.374;2022-09-29T16:29:32;19.00;96.80
45693;DHT22;31402;44.752;-0.374;2022-09-29T16:34:44;19.00;96.30
45693;DHT22;31402;44.752;-0.374;2022-09-29T16:37:16;19.00;96.50
45693;DHT22;31402;44.752;-0.374;2022-09-29T16:39:45;19.00;95.80
45693;DHT22;31402;44.752;-0.374;2022-09-29T16:42:20;19.10;95.90
45693;DHT22;31402;44.752;-0.374;2022-09-29T16:44:47;19.00;95.70
45693;DHT22;31402;44.752;-0.374;2022-09-29T16:47:28;18.90;95.80
45693;DHT22;31402;44.752;-0.374;2022-09-29T16:50:09;19.00;95.80
45693;DHT22;31402;44.752;-0.374;2022-09-29T16:52:45;18.90;95.80
45693;DHT22;31402;44.752;-0.374;2022-09-29T16:58:03;18.90;96.00
45693;DHT22;31402;44.752;-0.374;2022-09-29T17:00:30;18.90;96.50
45693;DHT22;31402;44.752;-0.374;2022-09-29T17:02:56;18.90;96.40
45693;DHT22;31402;44.752;-0.374;2022-09-29T17:05:29;18.80;96.60
45693;DHT22;31402;44.752;-0.374;2022-09-29T17:08:00;18.60;96.80
45693;DHT22;31402;44.752;-0.374;2022-09-29T17:10:27;18.60;96.70
45693;DHT22;31402;44.752;-0.374;2022-09-29T17:12:53;18.70;96.60
45693;DHT22;31402;44.752;-0.374;2022-09-29T17:15:20;18.70;96.50
45693;DHT22;31402;44.752;-0.374;2022-09-29T17:17:47;18.80;96.40
45693;DHT22;31402;44.752;-0.374;2022-09-29T17:20:23;18.90;96.00
45693;DHT22;31402;44.752;-0.374;2022-09-29T17:22:54;18.90;95.70
45693;DHT22;31402;44.752;-0.374;2022-09-29T17:25:20;18.70;95.70
45693;DHT22;31402;44.752;-0.374;2022-09-29T17:27:46;18.50;96.40
45693;DHT22;31402;44.752;-0.374;2022-09-29T17:30:30;18.40;96.50
45693;DHT22;31402;44.752;-0.374;2022-09-29T17:32:57;18.40;96.70
45693;DHT22;31402;44.752;-0.374;2022-09-29T17:35:29;18.50;96.60
45693;DHT22;31402;44.752;-0.374;2022-09-29T17:37:55;18.50;96.70
45693;DHT22;31402;44.752;-0.374;2022-09-29T17:40:26;18.40;96.60
45693;DHT22;31402;44.752;-0.374;2022-09-29T17:42:53;18.30;96.80
45693;DHT22;31402;44.752;-0.374;2022-09-29T17:45:21;18.20;97.00
45693;DHT22;31402;44.752;-0.374;2022-09-29T17:47:47;18.20;96.90
45693;DHT22;31402;44.752;-0.374;2022-09-29T17:50:34;18.20;96.90
45693;DHT22;31402;44.752;-0.374;2022-09-29T17:53:03;18.10;96.90
45693;DHT22;31402;44.752;-0.374;2022-09-29T17:55:30;18.20;96.90
45693;DHT22;31402;44.752;-0.374;2022-09-29T17:57:56;18.20;96.40
45693;DHT22;31402;44.752;-0.374;2022-09-29T18:00:31;18.00;96.50
45693;DHT22;31402;44.752;-0.374;2022-09-29T18:02:57;17.90;96.00
45693;DHT22;31402;44.752;-0.374;2022-09-29T18:05:26;18.00;95.80
45693;DHT22;31402;44.752;-0.374;2022-09-29T18:07:54;18.00;95.70
45693;DHT22;31402;44.752;-0.374;2022-09-29T18:10:40;17.90;95.40
45693;DHT22;31402;44.752;-0.374;2022-09-29T18:13:06;17.90;95.60
45693;DHT22;31402;44.752;-0.374;2022-09-29T18:15:33;17.70;95.40
45693;DHT22;31402;44.752;-0.374;2022-09-29T18:18:01;17.80;95.00
45693;DHT22;31402;44.752;-0.374;2022-09-29T18:20:29;17.70;94.80
45693;DHT22;31402;44.752;-0.374;2022-09-29T18:22:56;17.70;95.10
45693;DHT22;31402;44.752;-0.374;2022-09-29T18:25:26;17.70;95.30
45693;DHT22;31402;44.752;-0.374;2022-09-29T18:27:52;17.60;95.30
45693;DHT22;31402;44.752;-0.374;2022-09-29T18:30:21;17.50;95.20
45693;DHT22;31402;44.752;-0.374;2022-09-29T18:32:49;17.50;95.10
45693;DHT22;31402;44.752;-0.374;2022-09-29T18:35:19;17.50;95.20
45693;DHT22;31402;44.752;-0.374;2022-09-29T18:37:46;17.40;95.00
45693;DHT22;31402;44.752;-0.374;2022-09-29T18:40:12;17.30;94.90
45693;DHT22;31402;44.752;-0.374;2022-09-29T18:42:45;17.20;95.10
45693;DHT22;31402;44.752;-0.374;2022-09-29T18:45:14;17.30;94.70
45693;DHT22;31402;44.752;-0.374;2022-09-29T18:47:44;17.40;94.80
45693;DHT22;31402;44.752;-0.374;2022-09-29T18:50:20;17.30;94.70
45693;DHT22;31402;44.752;-0.374;2022-09-29T18:52:47;17.30;94.40
45693;DHT22;31402;44.752;-0.374;2022-09-29T18:55:15;17.30;94.50